createdAt,value
2023-03-12T00:02:24.746Z,91.30
2023-03-12T00:04:52.445Z,91.30
2023-03-12T00:07:20.183Z,91.00
2023-03-12T00:09:47.890Z,91.40
2023-03-12T00:12:16.946Z,91.40
2023-03-12T00:14:44.793Z,91.20
2023-03-12T00:17:12.569Z,91.50
2023-03-12T00:19:40.327Z,91.80
2023-03-12T00:22:08.089Z,91.70
2023-03-12T00:24:35.800Z,91.90
2023-03-12T00:27:03.470Z,92.30
2023-03-12T00:29:32.533Z,92.20
2023-03-12T00:32:00.218Z,92.30
2023-03-12T00:34:27.984Z,92.50
2023-03-12T00:36:55.697Z,92.60
2023-03-12T00:39:23.480Z,92.40
2023-03-12T00:41:51.193Z,92.80
2023-03-12T00:44:18.931Z,92.50
2023-03-12T00:46:48.029Z,92.90
2023-03-12T00:49:15.957Z,92.60
2023-03-12T00:51:43.739Z,93.10
2023-03-12T00:54:11.467Z,93.70
2023-03-12T00:56:39.161Z,93.30
2023-03-12T00:59:06.960Z,93.60
2023-03-12T01:01:34.826Z,93.10
2023-03-12T01:04:04.259Z,93.10
2023-03-12T01:06:32.290Z,93.00
2023-03-12T01:09:00.168Z,93.30
2023-03-12T01:11:28.196Z,93.40
2023-03-12T01:13:55.953Z,92.90
2023-03-12T01:16:28.079Z,92.60
2023-03-12T01:18:55.912Z,92.30
2023-03-12T01:21:25.642Z,92.10
2023-03-12T01:23:53.724Z,91.60
2023-03-12T01:26:21.699Z,91.40
2023-03-12T01:28:49.956Z,91.90
2023-03-12T01:31:19.561Z,91.30
2023-03-12T01:33:50.134Z,91.10
2023-03-12T01:36:20.064Z,90.90
2023-03-12T01:38:51.100Z,90.40
2023-03-12T01:41:19.068Z,90.90
2023-03-12T01:43:47.471Z,90.70
2023-03-12T01:46:30.409Z,91.10
2023-03-12T01:49:01.517Z,91.00
2023-03-12T01:51:34.238Z,91.00
2023-03-12T01:54:07.940Z,91.60
2023-03-12T01:56:38.425Z,91.10
2023-03-12T01:59:12.563Z,91.60
2023-03-12T02:01:42.105Z,91.70
2023-03-12T02:04:09.991Z,91.40
2023-03-12T02:06:43.709Z,91.20
2023-03-12T02:09:13.639Z,91.90
2023-03-12T02:11:41.425Z,93.20
2023-03-12T02:14:09.243Z,95.00
2023-03-12T02:16:37.134Z,96.30
2023-03-12T02:19:09.570Z,97.00
2023-03-12T02:21:37.485Z,97.30
2023-03-12T02:24:14.471Z,97.20
2023-03-12T02:26:43.704Z,98.10
2023-03-12T02:29:12.840Z,98.40
2023-03-12T02:31:45.171Z,98.00
2023-03-12T02:34:12.865Z,97.80
2023-03-12T02:36:40.801Z,97.30
2023-03-12T02:39:10.375Z,97.30
2023-03-12T02:41:40.745Z,96.70
2023-03-12T02:44:12.825Z,97.50
2023-03-12T02:46:43.227Z,96.90
2023-03-12T02:49:13.236Z,96.70
2023-03-12T02:51:41.651Z,95.60
2023-03-12T02:54:09.937Z,95.60
2023-03-12T02:56:37.894Z,95.30
2023-03-12T02:59:06.261Z,95.60
2023-03-12T03:01:35.449Z,94.40
2023-03-12T03:04:05.184Z,93.50
2023-03-12T03:06:33.213Z,93.40
2023-03-12T03:09:01.138Z,93.40
2023-03-12T03:11:29.182Z,92.80
2023-03-12T03:13:57.069Z,92.70
2023-03-12T03:16:25.305Z,92.90
2023-03-12T03:18:54.383Z,92.90
2023-03-12T03:21:22.617Z,92.30
2023-03-12T03:23:51.487Z,92.10
2023-03-12T03:26:22.100Z,92.00
2023-03-12T03:28:50.286Z,92.20
2023-03-12T03:31:18.429Z,91.90
2023-03-12T03:33:47.105Z,92.00
2023-03-12T03:36:16.639Z,92.10
2023-03-12T03:38:49.017Z,91.60
2023-03-12T03:41:17.389Z,91.60
2023-03-12T03:43:45.411Z,91.40
2023-03-12T03:46:14.721Z,91.40
2023-03-12T03:48:42.809Z,91.50
2023-03-12T03:51:11.685Z,91.30
2023-03-12T03:53:41.072Z,90.90
2023-03-12T03:56:10.413Z,90.70
2023-03-12T03:58:38.227Z,91.00
2023-03-12T04:01:06.409Z,90.60
2023-03-12T04:03:34.813Z,90.50
2023-03-12T04:06:05.230Z,90.80
2023-03-12T04:08:35.295Z,90.60
2023-03-12T04:11:09.558Z,90.30
2023-03-12T04:13:37.705Z,91.30
2023-03-12T04:16:06.382Z,90.70
2023-03-12T04:18:35.981Z,90.00
2023-03-12T04:21:04.497Z,90.20
2023-03-12T04:23:32.423Z,90.10
2023-03-12T04:26:00.141Z,90.50
2023-03-12T04:28:29.292Z,90.80
2023-03-12T04:30:59.387Z,91.00
2023-03-12T04:33:27.217Z,91.80
2023-03-12T04:35:55.257Z,92.00
2023-03-12T04:38:24.491Z,91.80
2023-03-12T04:40:59.742Z,92.10
2023-03-12T04:43:29.470Z,91.50
2023-03-12T04:45:58.101Z,91.90
2023-03-12T04:48:26.497Z,92.20
2023-03-12T04:50:54.457Z,92.90
2023-03-12T04:53:22.570Z,93.10
2023-03-12T04:55:50.592Z,93.00
2023-03-12T04:58:19.386Z,92.70
2023-03-12T05:00:49.031Z,92.90
2023-03-12T05:03:17.946Z,93.10
2023-03-12T05:05:45.746Z,93.10
2023-03-12T05:08:13.447Z,92.70
2023-03-12T05:10:41.305Z,92.20
2023-03-12T05:13:15.010Z,91.90
2023-03-12T05:15:42.848Z,92.30
2023-03-12T05:18:11.997Z,92.30
2023-03-12T05:20:40.011Z,92.50
2023-03-12T05:23:07.777Z,93.80
2023-03-12T05:25:38.964Z,96.80
2023-03-12T05:28:06.710Z,99.90
2023-03-12T05:30:34.393Z,99.90
2023-03-12T05:33:02.088Z,99.90
2023-03-12T05:35:31.221Z,99.90
2023-03-12T05:37:59.058Z,99.90
2023-03-12T05:40:26.731Z,99.90
2023-03-12T05:42:54.663Z,99.90
2023-03-12T05:45:22.518Z,99.90
2023-03-12T05:47:50.294Z,99.90
2023-03-12T05:50:18.167Z,99.90
2023-03-12T05:52:47.282Z,99.90
2023-03-12T05:55:14.981Z,99.90
2023-03-12T05:57:42.724Z,99.90
2023-03-12T06:00:14.044Z,99.90
2023-03-12T06:02:41.827Z,99.90
2023-03-12T06:05:10.963Z,99.90
2023-03-12T06:07:38.691Z,99.90
2023-03-12T06:10:09.165Z,99.90
2023-03-12T06:12:36.942Z,99.90
2023-03-12T06:15:05.429Z,99.90
2023-03-12T06:17:33.222Z,99.90
2023-03-12T06:20:00.942Z,99.90
2023-03-12T06:22:29.949Z,99.90
2023-03-12T06:24:57.805Z,99.90
2023-03-12T06:27:27.152Z,99.90
2023-03-12T06:29:54.865Z,99.90
2023-03-12T06:32:22.658Z,99.90
2023-03-12T06:34:50.406Z,99.90
2023-03-12T06:37:18.090Z,99.90
2023-03-12T06:39:45.790Z,99.90
2023-03-12T06:42:14.780Z,99.90
2023-03-12T06:44:43.922Z,99.90
2023-03-12T06:47:11.706Z,99.90
2023-03-12T06:49:39.615Z,99.90
2023-03-12T06:52:07.501Z,99.90
2023-03-12T06:54:35.286Z,99.90
2023-03-12T06:57:03.092Z,99.90
2023-03-12T06:59:30.798Z,99.90
2023-03-12T07:02:00.020Z,99.90
2023-03-12T07:04:28.005Z,99.90
2023-03-12T07:06:55.954Z,99.90
2023-03-12T07:09:23.687Z,99.90
2023-03-12T07:11:51.428Z,99.90
2023-03-12T07:14:20.104Z,99.90
2023-03-12T07:16:47.876Z,99.90
2023-03-12T07:19:19.271Z,99.90
2023-03-12T07:21:47.035Z,99.90
2023-03-12T07:24:14.764Z,99.90
2023-03-12T07:26:43.711Z,99.90
2023-03-12T07:29:11.453Z,99.90
2023-03-12T07:31:39.272Z,99.90
2023-03-12T07:34:07.324Z,99.90
2023-03-12T07:36:36.607Z,99.90
2023-03-12T07:39:04.755Z,99.90
2023-03-12T07:41:32.492Z,99.90
2023-03-12T07:44:00.291Z,99.90
2023-03-12T07:46:28.158Z,99.90
2023-03-12T07:48:55.937Z,99.90
2023-03-12T07:51:23.688Z,99.90
2023-03-12T07:53:52.819Z,99.90
2023-03-12T07:56:20.696Z,99.90
2023-03-12T07:58:48.645Z,99.90
2023-03-12T08:01:16.563Z,99.90
2023-03-12T08:03:44.799Z,99.90
2023-03-12T08:06:12.828Z,99.90
2023-03-12T08:08:42.277Z,99.90
2023-03-12T08:11:11.434Z,99.90
2023-03-12T08:13:39.210Z,99.90
2023-03-12T08:16:09.430Z,99.90
2023-03-12T08:18:37.417Z,99.90
2023-03-12T08:21:05.598Z,99.90
2023-03-12T08:23:33.395Z,99.90
2023-03-12T08:26:01.090Z,99.90
2023-03-12T08:28:30.766Z,99.90
2023-03-12T08:31:00.831Z,99.90
2023-03-12T08:33:29.321Z,99.90
2023-03-12T08:35:57.158Z,99.90
2023-03-12T08:38:25.525Z,99.90
2023-03-12T08:40:57.541Z,99.90
2023-03-12T08:43:25.969Z,99.90
2023-03-12T08:45:56.582Z,99.90
2023-03-12T08:48:24.418Z,99.90
2023-03-12T08:50:52.193Z,99.90
2023-03-12T08:53:20.032Z,99.90
2023-03-12T08:55:47.907Z,99.90
2023-03-12T08:58:15.723Z,99.90
2023-03-12T09:00:45.302Z,99.90
2023-03-12T09:03:16.054Z,99.90
2023-03-12T09:05:46.801Z,99.90
2023-03-12T09:08:16.991Z,99.90
2023-03-12T09:10:51.397Z,99.90
2023-03-12T09:13:20.144Z,99.90
2023-03-12T09:15:49.785Z,99.90
2023-03-12T09:18:21.434Z,99.90
2023-03-12T09:20:51.111Z,99.90
2023-03-12T09:23:20.901Z,99.90
2023-03-12T09:25:50.384Z,99.90
2023-03-12T09:28:20.455Z,99.90
2023-03-12T09:30:53.025Z,99.90
2023-03-12T09:33:24.905Z,99.90
2023-03-12T09:35:59.245Z,99.90
2023-03-12T09:38:29.051Z,99.90
2023-03-12T09:40:58.981Z,99.90
2023-03-12T09:43:34.282Z,99.90
2023-03-12T09:46:05.724Z,99.90
2023-03-12T09:48:38.597Z,99.90
2023-03-12T09:51:14.910Z,99.90
2023-03-12T09:53:47.647Z,99.90
2023-03-12T09:56:19.416Z,99.90
2023-03-12T09:58:49.100Z,99.90
2023-03-12T10:01:35.305Z,99.90
2023-03-12T10:04:29.384Z,99.90
2023-03-12T10:07:05.231Z,99.90
2023-03-12T10:10:00.910Z,99.90
2023-03-12T10:12:37.981Z,99.90
2023-03-12T10:15:18.191Z,99.90
2023-03-12T10:17:59.014Z,99.90
2023-03-12T10:20:42.851Z,99.90
2023-03-12T10:23:14.621Z,99.90
2023-03-12T10:25:48.623Z,99.90
2023-03-12T10:28:19.490Z,99.90
2023-03-12T10:30:52.853Z,99.90
2023-03-12T10:33:22.041Z,99.90
2023-03-12T10:35:53.126Z,99.90
2023-03-12T10:38:27.701Z,99.90
2023-03-12T10:40:55.544Z,99.90
2023-03-12T10:43:24.014Z,99.90
2023-03-12T10:46:02.635Z,99.90
2023-03-12T10:48:30.420Z,99.90
2023-03-12T10:51:05.187Z,99.90
2023-03-12T10:53:34.588Z,99.90
2023-03-12T10:56:05.871Z,99.90
2023-03-12T10:58:36.462Z,99.90
2023-03-12T11:01:06.948Z,99.90
2023-03-12T11:03:35.812Z,99.90
2023-03-12T11:06:08.097Z,99.90
2023-03-12T11:08:37.543Z,99.90
2023-03-12T11:11:06.271Z,99.90
2023-03-12T11:13:35.674Z,99.90
2023-03-12T11:16:05.073Z,99.90
2023-03-12T11:18:35.495Z,99.90
2023-03-12T11:21:18.375Z,99.90
2023-03-12T11:24:04.318Z,99.90
2023-03-12T11:26:38.653Z,99.90
2023-03-12T11:29:14.262Z,99.90
2023-03-12T11:31:47.310Z,99.90
2023-03-12T11:34:22.741Z,99.90
2023-03-12T11:36:58.916Z,99.90
2023-03-12T11:39:29.175Z,99.90
2023-03-12T11:42:17.194Z,99.90
2023-03-12T11:44:57.096Z,99.90
2023-03-12T11:47:40.748Z,99.90
2023-03-12T11:50:27.914Z,99.90
2023-03-12T11:53:29.380Z,98.70
2023-03-12T11:56:10.525Z,94.90
2023-03-12T11:58:53.866Z,92.40
2023-03-12T12:01:27.536Z,90.10
2023-03-12T12:04:18.990Z,90.00
2023-03-12T12:06:58.648Z,90.30
2023-03-12T12:09:36.211Z,91.00
2023-03-12T12:12:21.651Z,92.50
2023-03-12T12:15:02.038Z,94.10
2023-03-12T12:17:42.322Z,95.60
2023-03-12T12:20:26.796Z,95.20
2023-03-12T12:23:07.272Z,94.60
2023-03-12T12:26:05.533Z,95.30
2023-03-12T12:29:02.138Z,96.30
2023-03-12T12:31:41.388Z,97.30
2023-03-12T12:34:44.398Z,98.40
2023-03-12T12:37:25.630Z,96.10
2023-03-12T12:40:01.160Z,94.50
2023-03-12T12:42:34.485Z,94.20
2023-03-12T12:45:05.461Z,93.30
2023-03-12T12:47:40.884Z,92.60
2023-03-12T12:50:16.282Z,92.20
2023-03-12T12:52:45.466Z,90.60
2023-03-12T12:55:20.461Z,88.80
2023-03-12T12:57:55.590Z,88.90
2023-03-12T13:00:47.630Z,90.60
2023-03-12T13:03:19.358Z,91.50
2023-03-12T13:05:58.456Z,93.00
2023-03-12T13:08:55.979Z,93.60
2023-03-12T13:11:26.552Z,93.60
2023-03-12T13:14:21.128Z,93.80
2023-03-12T13:16:49.721Z,95.00
2023-03-12T13:19:27.776Z,95.50
2023-03-12T13:22:08.875Z,95.40
2023-03-12T13:24:44.254Z,95.80
2023-03-12T13:27:19.502Z,95.90
2023-03-12T13:29:55.011Z,95.40
2023-03-12T13:33:01.573Z,94.30
2023-03-12T13:35:37.288Z,94.60
2023-03-12T13:38:07.280Z,95.60
2023-03-12T13:40:41.363Z,95.60
2023-03-12T13:43:14.767Z,96.00
2023-03-12T13:45:59.294Z,95.10
2023-03-12T13:48:27.832Z,94.20
2023-03-12T13:50:57.894Z,93.10
2023-03-12T13:53:28.498Z,92.90
2023-03-12T13:56:05.256Z,90.60
2023-03-12T13:58:39.737Z,85.60
2023-03-12T14:01:16.189Z,81.70
2023-03-12T14:03:47.980Z,75.80
2023-03-12T14:06:19.407Z,73.00
2023-03-12T14:09:04.936Z,73.00
2023-03-12T14:11:45.154Z,74.60
2023-03-12T14:14:41.367Z,74.80
2023-03-12T14:17:18.277Z,74.40
2023-03-12T14:19:49.753Z,75.00
2023-03-12T14:22:22.543Z,74.90
2023-03-12T14:24:54.255Z,75.30
2023-03-12T14:27:27.238Z,75.90
2023-03-12T14:29:59.769Z,76.90
2023-03-12T14:32:32.520Z,77.80
2023-03-12T14:35:09.638Z,77.90
2023-03-12T14:37:41.381Z,79.00
2023-03-12T14:40:22.497Z,80.00
2023-03-12T14:42:50.374Z,81.90
2023-03-12T14:45:20.671Z,83.30
2023-03-12T14:47:54.577Z,85.50
2023-03-12T14:50:24.689Z,85.50
2023-03-12T14:52:52.682Z,86.20
2023-03-12T14:55:22.393Z,87.40
2023-03-12T14:57:50.989Z,86.90
2023-03-12T15:00:27.157Z,86.90
2023-03-12T15:02:58.712Z,87.20
2023-03-12T15:05:27.218Z,86.70
2023-03-12T15:07:59.312Z,85.90
2023-03-12T15:10:29.374Z,85.80
2023-03-12T15:12:59.467Z,86.30
2023-03-12T15:15:35.961Z,87.60
2023-03-12T15:18:07.209Z,89.30
2023-03-12T15:20:36.048Z,88.90
2023-03-12T15:23:04.825Z,88.90
2023-03-12T15:25:35.299Z,89.70
2023-03-12T15:28:06.327Z,89.10
2023-03-12T15:30:36.126Z,89.00
2023-03-12T15:33:13.050Z,89.20
2023-03-12T15:35:43.788Z,89.60
2023-03-12T15:38:19.292Z,90.10
2023-03-12T15:40:50.897Z,90.60
2023-03-12T15:43:21.593Z,90.40
2023-03-12T15:45:57.047Z,90.70
2023-03-12T15:48:29.527Z,90.50
2023-03-12T15:50:57.382Z,90.40
2023-03-12T15:53:28.561Z,90.40
2023-03-12T15:56:04.536Z,90.20
2023-03-12T15:58:32.988Z,90.00
2023-03-12T16:01:16.499Z,90.20
2023-03-12T16:03:46.631Z,90.40
2023-03-12T16:06:15.974Z,90.30
2023-03-12T16:08:47.222Z,90.60
2023-03-12T16:11:18.321Z,90.60
2023-03-12T16:13:49.630Z,90.40
2023-03-12T16:16:17.820Z,90.60
2023-03-12T16:18:47.073Z,90.50
2023-03-12T16:21:14.981Z,90.10
2023-03-12T16:23:42.767Z,90.30
2023-03-12T16:26:13.019Z,90.00
2023-03-12T16:28:41.011Z,90.20
2023-03-12T16:31:12.686Z,90.30
2023-03-12T16:33:40.446Z,90.40
2023-03-12T16:36:15.546Z,90.10
2023-03-12T16:38:43.634Z,90.40
2023-03-12T16:41:14.309Z,90.70
2023-03-12T16:43:44.274Z,90.70
2023-03-12T16:46:15.515Z,90.70
2023-03-12T16:48:43.326Z,91.20
2023-03-12T16:51:16.434Z,90.30
2023-03-12T16:53:44.773Z,90.50
2023-03-12T16:56:18.112Z,90.40
2023-03-12T16:58:46.885Z,90.40
2023-03-12T17:01:16.124Z,90.10
2023-03-12T17:03:46.454Z,90.10
2023-03-12T17:06:19.062Z,90.50
2023-03-12T17:08:47.168Z,90.50
2023-03-12T17:11:17.499Z,90.60
2023-03-12T17:13:46.982Z,90.60
2023-03-12T17:16:14.910Z,90.30
2023-03-12T17:18:42.851Z,90.30
2023-03-12T17:21:12.990Z,90.00
2023-03-12T17:23:42.522Z,89.00
2023-03-12T17:26:10.777Z,88.60
2023-03-12T17:28:38.575Z,89.10
2023-03-12T17:31:06.727Z,88.80
2023-03-12T17:33:34.595Z,89.30
2023-03-12T17:36:04.674Z,89.70
2023-03-12T17:38:32.970Z,90.00
2023-03-12T17:41:04.702Z,90.10
2023-03-12T17:43:34.913Z,90.10
2023-03-12T17:46:05.709Z,90.60
2023-03-12T17:48:33.555Z,90.90
2023-03-12T17:51:05.906Z,91.00
2023-03-12T17:53:33.929Z,91.00
2023-03-12T17:56:03.331Z,91.20
2023-03-12T17:58:31.327Z,91.10
2023-03-12T18:01:00.265Z,91.50
2023-03-12T18:03:28.185Z,91.80
2023-03-12T18:05:56.082Z,91.40
2023-03-12T18:08:23.914Z,91.40
2023-03-12T18:10:51.609Z,91.60
2023-03-12T18:13:20.922Z,92.00
2023-03-12T18:15:53.369Z,91.90
2023-03-12T18:18:21.825Z,92.10
2023-03-12T18:20:49.967Z,91.90
2023-03-12T18:23:18.605Z,92.10
2023-03-12T18:25:46.563Z,92.20
2023-03-12T18:28:15.183Z,92.30
2023-03-12T18:30:46.347Z,92.20
2023-03-12T18:33:14.724Z,91.90
2023-03-12T18:35:43.759Z,92.00
2023-03-12T18:38:11.591Z,91.90
2023-03-12T18:40:39.705Z,91.70
2023-03-12T18:43:07.451Z,91.60
2023-03-12T18:45:35.209Z,91.30
2023-03-12T18:48:04.411Z,91.40
2023-03-12T18:50:32.152Z,91.40
2023-03-12T18:53:00.028Z,91.30
2023-03-12T18:55:27.770Z,91.20
2023-03-12T18:57:55.626Z,90.90
2023-03-12T19:00:23.396Z,91.20
2023-03-12T19:02:51.178Z,91.40
2023-03-12T19:05:20.852Z,91.00
2023-03-12T19:07:48.843Z,90.90
2023-03-12T19:10:17.707Z,90.90
2023-03-12T19:12:52.585Z,90.90
2023-03-12T19:15:21.710Z,90.90
2023-03-12T19:17:49.603Z,91.00
2023-03-12T19:20:17.953Z,90.90
2023-03-12T19:22:47.077Z,90.70
2023-03-12T19:25:15.733Z,91.00
2023-03-12T19:27:43.490Z,90.80
2023-03-12T19:30:13.680Z,90.90
2023-03-12T19:32:44.170Z,90.70
2023-03-12T19:35:13.519Z,91.00
2023-03-12T19:37:42.004Z,90.60
2023-03-12T19:40:13.100Z,90.60
2023-03-12T19:42:40.958Z,91.00
2023-03-12T19:45:09.740Z,90.80
2023-03-12T19:47:37.734Z,91.00
2023-03-12T19:50:06.435Z,90.70
2023-03-12T19:52:34.196Z,90.90
2023-03-12T19:55:05.158Z,90.50
2023-03-12T19:57:34.897Z,90.30
2023-03-12T20:00:07.163Z,90.20
2023-03-12T20:02:35.127Z,90.30
2023-03-12T20:05:03.051Z,90.10
2023-03-12T20:07:30.939Z,90.20
2023-03-12T20:09:58.788Z,90.30
2023-03-12T20:12:26.672Z,90.40
2023-03-12T20:14:55.757Z,90.30
2023-03-12T20:17:23.639Z,90.60
2023-03-12T20:19:51.512Z,90.70
2023-03-12T20:22:19.393Z,90.80
2023-03-12T20:24:47.184Z,90.90
2023-03-12T20:27:15.049Z,90.80
2023-03-12T20:29:43.479Z,91.00
2023-03-12T20:32:12.720Z,91.10
2023-03-12T20:34:40.582Z,91.40
2023-03-12T20:37:08.502Z,91.70
2023-03-12T20:39:36.590Z,91.80
2023-03-12T20:42:04.636Z,91.90
2023-03-12T20:44:32.484Z,91.80
2023-03-12T20:47:00.422Z,91.80
2023-03-12T20:49:29.622Z,92.10
2023-03-12T20:51:57.361Z,92.30
2023-03-12T20:54:25.534Z,92.40
2023-03-12T20:56:53.369Z,92.40
2023-03-12T20:59:21.231Z,92.30
2023-03-12T21:01:48.952Z,92.30
2023-03-12T21:04:16.835Z,92.50
2023-03-12T21:06:47.640Z,92.50
2023-03-12T21:09:15.959Z,92.60
2023-03-12T21:11:43.871Z,92.80
2023-03-12T21:14:11.684Z,92.90
2023-03-12T21:16:39.404Z,92.80
2023-03-12T21:19:07.375Z,93.20
2023-03-12T21:21:36.232Z,93.30
2023-03-12T21:24:05.758Z,93.60
2023-03-12T21:26:33.774Z,93.90
2023-03-12T21:29:01.787Z,94.00
2023-03-12T21:31:29.792Z,94.30
2023-03-12T21:33:58.241Z,94.40
2023-03-12T21:36:26.834Z,94.80
2023-03-12T21:38:54.812Z,94.90
2023-03-12T21:41:24.249Z,95.10
2023-03-12T21:43:52.048Z,95.20
2023-03-12T21:46:24.437Z,95.10
2023-03-12T21:48:52.630Z,94.90
2023-03-12T21:51:22.610Z,94.70
2023-03-12T21:53:54.894Z,95.00
2023-03-12T21:56:26.330Z,95.00
2023-03-12T21:58:54.174Z,94.60
2023-03-12T22:01:22.135Z,94.30
2023-03-12T22:03:49.920Z,94.00
2023-03-12T22:06:17.921Z,94.10
2023-03-12T22:08:47.987Z,94.40
2023-03-12T22:11:16.822Z,94.20
2023-03-12T22:13:46.288Z,94.50
2023-03-12T22:16:14.990Z,94.40
2023-03-12T22:18:44.879Z,94.30
2023-03-12T22:21:19.070Z,94.40
2023-03-12T22:23:48.168Z,94.60
2023-03-12T22:26:16.380Z,95.00
2023-03-12T22:28:49.117Z,94.90
2023-03-12T22:31:17.482Z,94.90
2023-03-12T22:33:45.733Z,94.70
2023-03-12T22:36:15.077Z,95.00
2023-03-12T22:38:43.749Z,94.70
2023-03-12T22:41:19.302Z,94.80
2023-03-12T22:43:49.894Z,94.90
2023-03-12T22:46:18.712Z,94.90
2023-03-12T22:48:48.287Z,95.60
2023-03-12T22:51:15.986Z,95.70
2023-03-12T22:53:43.849Z,95.70
2023-03-12T22:56:13.902Z,95.60
2023-03-12T22:58:42.285Z,95.80
2023-03-12T23:01:13.277Z,95.90
2023-03-12T23:03:43.164Z,95.70
2023-03-12T23:06:12.585Z,95.30
2023-03-12T23:08:40.505Z,95.10
2023-03-12T23:11:09.484Z,95.30
2023-03-12T23:13:40.141Z,94.90
2023-03-12T23:16:10.708Z,95.00
2023-03-12T23:18:40.352Z,95.00
2023-03-12T23:21:10.145Z,94.60
2023-03-12T23:23:42.103Z,94.60
2023-03-12T23:26:11.632Z,94.50
2023-03-12T23:28:39.426Z,94.50
2023-03-12T23:31:09.274Z,94.40
2023-03-12T23:33:37.653Z,94.70
2023-03-12T23:36:08.949Z,94.50
2023-03-12T23:38:37.741Z,94.50
2023-03-12T23:41:07.223Z,94.40
2023-03-12T23:43:35.263Z,94.10
2023-03-12T23:46:06.809Z,93.90
2023-03-12T23:48:36.356Z,93.70
2023-03-12T23:51:10.506Z,94.30
2023-03-12T23:53:40.032Z,93.60
2023-03-12T23:56:09.512Z,93.70
2023-03-12T23:58:37.459Z,93.50
